createdAt,value
2018-12-19T00:00:25.665Z,101413.57
2018-12-19T00:02:51.381Z,101415.14
2018-12-19T00:05:17.102Z,101407.16
2018-12-19T00:07:42.839Z,101402.19
2018-12-19T00:10:08.549Z,101392.75
2018-12-19T00:12:34.491Z,101387.56
2018-12-19T00:15:00.219Z,101393.98
2018-12-19T00:17:25.939Z,101392.39
2018-12-19T00:19:51.653Z,101381.05
2018-12-19T00:22:17.375Z,101379.71
2018-12-19T00:24:49.982Z,101377.05
2018-12-19T00:27:15.708Z,101372.80
2018-12-19T00:29:41.427Z,101379.82
2018-12-19T00:32:07.159Z,101373.91
2018-12-19T00:34:32.879Z,101378.73
2018-12-19T00:36:58.618Z,101378.88
2018-12-19T00:39:24.339Z,101375.23
2018-12-19T00:41:50.059Z,101363.72
2018-12-19T00:44:15.915Z,101356.23
2018-12-19T00:46:41.755Z,101360.59
2018-12-19T00:49:07.479Z,101356.84
2018-12-19T00:51:33.300Z,101361.08
2018-12-19T00:53:59.015Z,101353.95
2018-12-19T00:56:24.747Z,101347.69
2018-12-19T00:58:50.475Z,101354.06
2018-12-19T01:01:16.326Z,101348.87
2018-12-19T01:03:42.062Z,101350.44
2018-12-19T01:06:07.888Z,101349.10
2018-12-19T01:08:33.606Z,101357.45
2018-12-19T01:10:59.325Z,101354.55
2018-12-19T01:13:25.055Z,101353.09
2018-12-19T01:15:50.871Z,101354.32
2018-12-19T01:18:16.752Z,101349.72
2018-12-19T01:20:42.480Z,101343.31
2018-12-19T01:23:08.228Z,101343.78
2018-12-19T01:25:34.058Z,101337.87
2018-12-19T01:27:59.794Z,101322.76
2018-12-19T01:30:25.611Z,101317.67
2018-12-19T01:32:51.347Z,101321.67
2018-12-19T01:35:17.062Z,101311.38
2018-12-19T01:37:42.785Z,101302.81
2018-12-19T01:40:08.494Z,101299.29
2018-12-19T01:42:34.221Z,101297.23
2018-12-19T01:44:59.938Z,101291.19
2018-12-19T01:47:25.701Z,101286.59
2018-12-19T01:49:51.422Z,101287.33
2018-12-19T01:52:24.288Z,101286.75
2018-12-19T01:54:50.023Z,101284.45
2018-12-19T01:57:15.729Z,101280.91
2018-12-19T01:59:41.468Z,101280.82
2018-12-19T02:02:07.190Z,101272.94
2018-12-19T02:04:32.907Z,101272.84
2018-12-19T02:06:58.714Z,101261.71
2018-12-19T02:09:28.843Z,101261.71
2018-12-19T02:11:52.261Z,101263.04
2018-12-19T02:14:17.994Z,101254.70
2018-12-19T02:16:43.818Z,101250.23
2018-12-19T02:19:09.564Z,101245.50
2018-12-19T02:21:35.377Z,101240.17
2018-12-19T02:24:01.110Z,101232.41
2018-12-19T02:26:26.938Z,101220.94
2018-12-19T02:28:52.771Z,101223.46
2018-12-19T02:31:18.490Z,101224.77
2018-12-19T02:33:44.236Z,101216.42
2018-12-19T02:36:09.961Z,101210.27
2018-12-19T02:38:35.678Z,101201.67
2018-12-19T02:41:01.402Z,101195.84
2018-12-19T02:43:27.223Z,101188.58
2018-12-19T02:45:52.970Z,101190.27
2018-12-19T02:48:18.693Z,101181.31
2018-12-19T02:50:44.630Z,101174.77
2018-12-19T02:53:10.455Z,101167.87
2018-12-19T02:55:36.175Z,101167.65
2018-12-19T02:58:01.909Z,101159.88
2018-12-19T03:00:27.634Z,101150.42
2018-12-19T03:02:53.475Z,101140.13
2018-12-19T03:05:19.301Z,101141.83
2018-12-19T03:07:45.024Z,101143.62
2018-12-19T03:10:10.866Z,101137.94
2018-12-19T03:12:36.689Z,101132.61
2018-12-19T03:15:02.925Z,101125.95
2018-12-19T03:17:28.650Z,101128.00
2018-12-19T03:19:54.384Z,101124.48
2018-12-19T03:22:20.105Z,101131.67
2018-12-19T03:24:45.839Z,101133.27
2018-12-19T03:27:11.546Z,101133.84
2018-12-19T03:29:37.253Z,101129.13
2018-12-19T03:32:03.089Z,101126.25
2018-12-19T03:34:28.898Z,101119.13
2018-12-19T03:36:54.620Z,101117.30
2018-12-19T03:39:20.430Z,101112.11
2018-12-19T03:41:46.258Z,101123.12
2018-12-19T03:44:11.984Z,101126.17
2018-12-19T03:46:37.732Z,101123.84
2018-12-19T03:49:03.449Z,101119.62
2018-12-19T03:51:29.184Z,101108.63
2018-12-19T03:53:55.019Z,101112.05
2018-12-19T03:56:20.858Z,101112.88
2018-12-19T03:58:46.670Z,101104.42
2018-12-19T04:01:12.405Z,101109.88
2018-12-19T04:03:38.122Z,101112.66
2018-12-19T04:06:03.867Z,101104.81
2018-12-19T04:08:29.591Z,101110.97
2018-12-19T04:10:55.325Z,101114.13
2018-12-19T04:13:21.063Z,101102.63
2018-12-19T04:15:46.791Z,101091.63
2018-12-19T04:18:12.619Z,101082.23
2018-12-19T04:20:38.351Z,101081.73
2018-12-19T04:23:04.078Z,101079.93
2018-12-19T04:25:29.806Z,101072.42
2018-12-19T04:27:55.543Z,101069.90
2018-12-19T04:30:21.259Z,101074.36
2018-12-19T04:32:47.292Z,101066.02
2018-12-19T04:35:13.003Z,101066.02
2018-12-19T04:37:38.747Z,101058.40
2018-12-19T04:40:05.814Z,101060.70
2018-12-19T04:42:32.038Z,101053.69
2018-12-19T04:44:57.854Z,101051.67
2018-12-19T04:47:23.606Z,101060.70
2018-12-19T04:49:49.335Z,101053.98
2018-12-19T04:52:15.080Z,101069.58
2018-12-19T04:54:40.915Z,101076.59
2018-12-19T04:57:06.655Z,101075.38
2018-12-19T04:59:32.455Z,101063.29
2018-12-19T05:01:58.170Z,101068.03
2018-12-19T05:04:23.884Z,101060.05
2018-12-19T05:06:49.606Z,101065.84
2018-12-19T05:09:15.314Z,101068.03
2018-12-19T05:11:41.131Z,101061.13
2018-12-19T05:14:06.982Z,101061.48
2018-12-19T05:16:32.794Z,101060.98
2018-12-19T05:18:58.602Z,101064.83
2018-12-19T05:21:24.302Z,101065.45
2018-12-19T05:23:50.011Z,101062.31
2018-12-19T05:26:15.714Z,101069.04
2018-12-19T05:28:41.418Z,101076.19
2018-12-19T05:31:07.118Z,101085.98
2018-12-19T05:33:32.822Z,101083.81
2018-12-19T05:35:58.521Z,101065.66
2018-12-19T05:38:24.229Z,101068.00
2018-12-19T05:40:50.030Z,101062.39
2018-12-19T05:43:15.746Z,101073.89
2018-12-19T05:45:41.475Z,101060.59
2018-12-19T05:48:07.197Z,101061.67
2018-12-19T05:50:33.115Z,101066.16
2018-12-19T05:52:58.938Z,101057.06
2018-12-19T05:55:24.754Z,101054.05
2018-12-19T05:57:50.571Z,101046.42
2018-12-19T06:00:16.395Z,101051.89
2018-12-19T06:02:42.203Z,101055.73
2018-12-19T06:05:08.018Z,101047.33
2018-12-19T06:07:33.736Z,101049.02
2018-12-19T06:09:59.449Z,101056.70
2018-12-19T06:12:25.263Z,101063.86
2018-12-19T06:14:50.982Z,101063.72
2018-12-19T06:17:23.748Z,101062.03
2018-12-19T06:19:56.467Z,101064.69
2018-12-19T06:22:22.185Z,101070.38
2018-12-19T06:24:47.900Z,101069.33
2018-12-19T06:27:13.715Z,101076.59
2018-12-19T06:29:39.435Z,101078.00
2018-12-19T06:32:05.234Z,101077.64
2018-12-19T06:34:30.942Z,101076.45
2018-12-19T06:36:56.646Z,101077.92
2018-12-19T06:39:22.498Z,101066.38
2018-12-19T06:41:48.315Z,101067.59
2018-12-19T06:44:14.033Z,101070.26
2018-12-19T06:46:39.846Z,101063.25
2018-12-19T06:49:05.645Z,101056.45
2018-12-19T06:51:31.346Z,101061.52
2018-12-19T06:53:57.051Z,101045.55
2018-12-19T06:56:22.751Z,101052.06
2018-12-19T06:58:48.465Z,101043.61
2018-12-19T07:01:14.274Z,101043.11
2018-12-19T07:03:40.007Z,101045.30
2018-12-19T07:06:05.813Z,101044.80
2018-12-19T07:08:31.626Z,101044.89
2018-12-19T07:10:57.348Z,101039.00
2018-12-19T07:13:23.053Z,101040.55
2018-12-19T07:15:48.776Z,101037.38
2018-12-19T07:18:14.467Z,101034.87
2018-12-19T07:20:40.178Z,101042.63
2018-12-19T07:23:05.878Z,101049.86
2018-12-19T07:25:31.598Z,101041.38
2018-12-19T07:28:04.568Z,101045.37
2018-12-19T07:30:30.287Z,101042.09
2018-12-19T07:32:55.985Z,101032.06
2018-12-19T07:35:23.858Z,101028.57
2018-12-19T07:37:49.567Z,101022.13
2018-12-19T07:40:15.374Z,101027.20
2018-12-19T07:42:41.083Z,101030.00
2018-12-19T07:45:06.908Z,101031.76
2018-12-19T07:47:32.626Z,101025.10
2018-12-19T07:49:58.321Z,101032.98
2018-12-19T07:52:24.133Z,100975.39
2018-12-19T07:54:49.973Z,101027.98
2018-12-19T07:57:15.777Z,101025.67
2018-12-19T07:59:41.593Z,101023.98
2018-12-19T08:02:07.410Z,101036.67
2018-12-19T08:04:33.434Z,101040.41
2018-12-19T08:06:59.146Z,101038.10
2018-12-19T08:09:24.852Z,101040.16
2018-12-19T08:11:50.664Z,101031.45
2018-12-19T08:14:16.370Z,101025.16
2018-12-19T08:16:42.091Z,101018.97
2018-12-19T08:19:07.998Z,101020.66
2018-12-19T08:21:33.706Z,101017.16
2018-12-19T08:23:59.410Z,101026.84
2018-12-19T08:26:25.126Z,101023.41
2018-12-19T08:28:51.042Z,101035.54
2018-12-19T08:31:16.865Z,101031.19
2018-12-19T08:33:42.570Z,101030.42
2018-12-19T08:36:15.291Z,101031.97
2018-12-19T08:38:47.954Z,101024.84
2018-12-19T08:41:13.776Z,101026.17
2018-12-19T08:43:39.689Z,101022.89
2018-12-19T08:46:05.522Z,101023.72
2018-12-19T08:48:31.339Z,101021.31
2018-12-19T08:50:57.154Z,101027.71
2018-12-19T08:53:29.975Z,101029.55
2018-12-19T08:55:55.694Z,101043.55
2018-12-19T08:58:21.411Z,101047.89
2018-12-19T09:00:49.237Z,101049.88
2018-12-19T09:03:15.150Z,101057.00
2018-12-19T09:05:41.598Z,101062.42
2018-12-19T09:08:07.478Z,101076.45
2018-12-19T09:10:33.287Z,101072.52
2018-12-19T09:12:58.987Z,101068.13
2018-12-19T09:15:30.906Z,101059.40
2018-12-19T09:17:56.625Z,101064.94
2018-12-19T09:20:22.455Z,101067.95
2018-12-19T09:22:48.274Z,101068.88
2018-12-19T09:25:14.075Z,101067.75
2018-12-19T09:27:39.890Z,101069.33
2018-12-19T09:30:05.695Z,101071.75
2018-12-19T09:32:31.410Z,101068.31
2018-12-19T09:34:57.214Z,101070.36
2018-12-19T09:37:22.934Z,101060.20
2018-12-19T09:39:48.638Z,101057.75
2018-12-19T09:42:14.363Z,101059.53
2018-12-19T09:44:40.070Z,101063.87
2018-12-19T09:47:06.661Z,101064.59
2018-12-19T09:49:32.501Z,101062.91
2018-12-19T09:51:58.262Z,101059.94
2018-12-19T09:54:24.073Z,101056.80
2018-12-19T09:56:49.778Z,101039.69
2018-12-19T09:59:15.495Z,101028.77
2018-12-19T10:01:41.210Z,101025.83
2018-12-19T10:04:07.029Z,101025.83
2018-12-19T10:06:32.755Z,101028.70
2018-12-19T10:08:58.470Z,101031.92
2018-12-19T10:11:24.171Z,101031.73
2018-12-19T10:13:49.874Z,101021.41
2018-12-19T10:16:15.680Z,101016.37
2018-12-19T10:18:41.386Z,101005.98
2018-12-19T10:21:07.187Z,101016.99
2018-12-19T10:23:32.934Z,101021.46
2018-12-19T10:26:04.649Z,101000.02
2018-12-19T10:28:33.021Z,101002.06
2018-12-19T10:30:58.831Z,101005.35
2018-12-19T10:33:31.597Z,101001.08
2018-12-19T10:35:57.511Z,101005.75
2018-12-19T10:38:23.334Z,101005.91
2018-12-19T10:40:49.146Z,101006.18
2018-12-19T10:43:14.954Z,101006.41
2018-12-19T10:45:40.655Z,100993.91
2018-12-19T10:48:06.394Z,100991.05
2018-12-19T10:50:33.006Z,100998.75
2018-12-19T10:52:58.715Z,100996.58
2018-12-19T10:55:24.418Z,100993.92
2018-12-19T10:57:57.223Z,101004.70
2018-12-19T11:00:29.124Z,101005.56
2018-12-19T11:02:54.840Z,100995.61
2018-12-19T11:05:20.662Z,100992.63
2018-12-19T11:07:46.365Z,100988.36
2018-12-19T11:10:12.094Z,100991.02
2018-12-19T11:12:37.796Z,100991.02
2018-12-19T11:15:04.427Z,100980.71
2018-12-19T11:17:30.130Z,100987.10
2018-12-19T11:19:55.858Z,100983.45
2018-12-19T11:22:21.663Z,100980.28
2018-12-19T11:24:47.401Z,100983.03
2018-12-19T11:27:13.110Z,100987.81
2018-12-19T11:29:38.824Z,100985.27
2018-12-19T11:32:04.537Z,100985.97
2018-12-19T11:34:30.258Z,100985.27
2018-12-19T11:36:56.078Z,100986.32
2018-12-19T11:39:21.798Z,100990.32
2018-12-19T11:41:47.521Z,100984.70
2018-12-19T11:44:13.239Z,100977.53
2018-12-19T11:46:38.964Z,100978.04
2018-12-19T11:49:04.894Z,100976.55
2018-12-19T11:51:30.614Z,100974.04
2018-12-19T11:53:56.332Z,100972.04
2018-12-19T11:56:22.262Z,100977.33
2018-12-19T11:58:48.062Z,100977.73
2018-12-19T12:01:13.874Z,100971.72
2018-12-19T12:03:39.576Z,100975.38
2018-12-19T12:06:05.292Z,100971.02
2018-12-19T12:08:30.994Z,100975.02
2018-12-19T12:10:56.806Z,100972.20
2018-12-19T12:13:22.519Z,100967.56
2018-12-19T12:15:48.235Z,100967.12
2018-12-19T12:18:13.953Z,100969.45
2018-12-19T12:20:39.674Z,100966.50
2018-12-19T12:23:05.372Z,100962.92
2018-12-19T12:25:31.198Z,100960.89
2018-12-19T12:27:56.898Z,100959.91
2018-12-19T12:30:22.615Z,100956.92
2018-12-19T12:32:48.329Z,100959.39
2018-12-19T12:35:14.191Z,100958.06
2018-12-19T12:37:39.902Z,100953.62
2018-12-19T12:40:07.326Z,100957.50
2018-12-19T12:42:33.053Z,100952.80
2018-12-19T12:44:59.074Z,100956.64
2018-12-19T12:47:25.026Z,100958.05
2018-12-19T12:49:50.734Z,100952.08
2018-12-19T12:52:16.447Z,100951.09
2018-12-19T12:54:42.150Z,100951.48
2018-12-19T12:57:07.978Z,100958.50
2018-12-19T12:59:33.695Z,100953.66
2018-12-19T13:01:59.408Z,100952.52
2018-12-19T13:04:25.109Z,100955.73
2018-12-19T13:06:50.906Z,100960.53
2018-12-19T13:09:16.614Z,100958.91
2018-12-19T13:11:42.339Z,100956.02
2018-12-19T13:14:08.146Z,100953.26
2018-12-19T13:16:33.874Z,100954.47
2018-12-19T13:18:59.578Z,100953.48
2018-12-19T13:21:25.319Z,100952.69
2018-12-19T13:23:51.091Z,100952.69
2018-12-19T13:26:16.997Z,100948.69
2018-12-19T13:28:42.821Z,100950.56
2018-12-19T13:31:08.635Z,100954.28
2018-12-19T13:33:34.478Z,100956.76
2018-12-19T13:36:00.329Z,100954.75
2018-12-19T13:38:26.338Z,100951.67
2018-12-19T13:40:52.055Z,100949.42
2018-12-19T13:43:17.794Z,100948.66
2018-12-19T13:45:43.765Z,100948.43
2018-12-19T13:48:09.537Z,100947.67
2018-12-19T13:50:35.254Z,100949.35
2018-12-19T13:53:01.071Z,100951.35
2018-12-19T13:55:26.778Z,100955.58
2018-12-19T13:57:52.500Z,100954.53
2018-12-19T14:00:19.222Z,100955.58
2018-12-19T14:02:45.047Z,100955.92
2018-12-19T14:05:10.855Z,100960.13
2018-12-19T14:07:36.570Z,100964.92
2018-12-19T14:10:03.207Z,100958.59
2018-12-19T14:12:29.027Z,100960.47
2018-12-19T14:14:54.730Z,100962.98
2018-12-19T14:17:20.426Z,100962.69
2018-12-19T14:19:46.137Z,100966.34
2018-12-19T14:22:11.845Z,100959.67
2018-12-19T14:24:37.562Z,100956.20
2018-12-19T14:27:03.381Z,100958.75
2018-12-19T14:29:29.198Z,100950.41
2018-12-19T14:31:54.900Z,100955.47
2018-12-19T14:34:20.623Z,100955.17
2018-12-19T14:36:46.342Z,100952.50
2018-12-19T14:39:12.046Z,100957.34
2018-12-19T14:41:37.869Z,100960.23
2018-12-19T14:44:03.905Z,100959.02
2018-12-19T14:46:29.630Z,100959.59
2018-12-19T14:48:55.355Z,100965.59
2018-12-19T14:51:21.181Z,100966.80
2018-12-19T14:53:47.010Z,100967.97
2018-12-19T14:56:12.715Z,100971.63
2018-12-19T14:58:38.546Z,100967.50
2018-12-19T15:01:04.449Z,100966.30
2018-12-19T15:03:30.178Z,100966.64
2018-12-19T15:05:55.979Z,100970.99
2018-12-19T15:08:21.906Z,100972.67
2018-12-19T15:10:47.719Z,100971.82
2018-12-19T15:13:13.540Z,100979.36
2018-12-19T15:15:39.270Z,100975.70
2018-12-19T15:18:04.980Z,100978.50
2018-12-19T15:20:30.691Z,100982.03
2018-12-19T15:22:56.398Z,100977.38
2018-12-19T15:25:22.221Z,100982.72
2018-12-19T15:27:47.930Z,100989.43
2018-12-19T15:30:13.641Z,100990.63
2018-12-19T15:32:39.764Z,100993.78
2018-12-19T15:35:05.694Z,100997.16
2018-12-19T15:37:31.540Z,100993.36
2018-12-19T15:39:57.255Z,100988.50
2018-12-19T15:42:22.963Z,100993.14
2018-12-19T15:44:48.687Z,100990.53
2018-12-19T15:47:14.422Z,100986.52
2018-12-19T15:52:12.686Z,100990.23
2018-12-19T15:54:38.397Z,100998.09
2018-12-19T15:57:04.106Z,100991.25
2018-12-19T15:59:29.915Z,100986.25
2018-12-19T16:01:55.622Z,100987.91
2018-12-19T16:04:21.334Z,100988.26
2018-12-19T16:06:47.156Z,100984.44
2018-12-19T16:09:12.870Z,100982.94
2018-12-19T16:11:38.693Z,100987.80
2018-12-19T16:14:04.506Z,100987.94
2018-12-19T16:16:30.223Z,100988.80
2018-12-19T16:18:56.050Z,100988.28
2018-12-19T16:21:21.866Z,100988.63
2018-12-19T16:23:47.586Z,100991.12
2018-12-19T16:26:13.407Z,100980.61
2018-12-19T16:28:39.122Z,100982.81
2018-12-19T16:31:04.938Z,100984.14
2018-12-19T16:33:30.844Z,100975.97
2018-12-19T16:35:56.576Z,100987.34
2018-12-19T16:38:22.401Z,100979.67
2018-12-19T16:40:48.191Z,100976.02
2018-12-19T16:43:14.279Z,100984.50
2018-12-19T16:45:40.533Z,100981.84
2018-12-19T16:48:11.819Z,100984.52
2018-12-19T16:50:37.639Z,100986.25
2018-12-19T16:53:03.348Z,100989.58
2018-12-19T16:55:29.181Z,100988.63
2018-12-19T16:57:54.889Z,101000.31
2018-12-19T17:00:20.621Z,101003.47
2018-12-19T17:02:46.637Z,100997.59
2018-12-19T17:05:12.434Z,101001.60
2018-12-19T17:07:38.731Z,101003.29
2018-12-19T17:10:05.095Z,100997.30
2018-12-19T17:12:30.814Z,100998.63
2018-12-19T17:14:57.141Z,100991.95
2018-12-19T17:17:22.900Z,100993.92
2018-12-19T17:19:48.779Z,100992.89
2018-12-19T17:22:14.934Z,100990.86
2018-12-19T17:24:40.820Z,100986.67
2018-12-19T17:27:06.735Z,100988.86
2018-12-19T17:29:32.466Z,100991.38
2018-12-19T17:31:58.599Z,100984.17
2018-12-19T17:34:24.926Z,100980.67
2018-12-19T17:36:50.948Z,100976.16
2018-12-19T17:39:16.666Z,100973.00
2018-12-19T17:41:42.379Z,100967.26
2018-12-19T17:44:08.098Z,100962.91
2018-12-19T17:46:33.826Z,100968.25
2018-12-19T17:48:59.535Z,100962.61
2018-12-19T17:51:25.249Z,100958.25
2018-12-19T17:53:51.237Z,100963.25
2018-12-19T17:56:17.076Z,100965.11
2018-12-19T17:58:42.879Z,100965.63
2018-12-19T18:01:08.698Z,100965.28
2018-12-19T18:03:34.547Z,100970.33
2018-12-19T18:06:00.349Z,100959.98
2018-12-19T18:08:26.355Z,100974.52
2018-12-19T18:10:52.114Z,100970.86
2018-12-19T18:13:18.150Z,100964.01
2018-12-19T18:15:43.976Z,100961.03
2018-12-19T18:18:09.814Z,100962.90
2018-12-19T18:20:35.538Z,100965.92
2018-12-19T18:23:01.272Z,100971.27
2018-12-19T18:25:27.109Z,100972.60
2018-12-19T18:27:52.905Z,100979.16
2018-12-19T18:30:18.636Z,100973.16
2018-12-19T18:32:44.402Z,100980.20
2018-12-19T18:35:10.132Z,100974.98
2018-12-19T18:37:36.091Z,100977.01
2018-12-19T18:40:02.258Z,100971.36
2018-12-19T18:42:28.013Z,100975.50
2018-12-19T18:44:53.730Z,100979.17
2018-12-19T18:47:19.650Z,100981.50
2018-12-19T18:49:45.396Z,100976.48
2018-12-19T18:52:11.226Z,100984.34
2018-12-19T18:54:36.984Z,100979.64
2018-12-19T18:57:02.764Z,100985.80
2018-12-19T18:59:28.495Z,100986.14
2018-12-19T19:01:54.318Z,100991.97
2018-12-19T19:04:20.322Z,100993.30
2018-12-19T19:06:46.206Z,100991.97
2018-12-19T19:09:12.035Z,100986.30
2018-12-19T19:11:37.751Z,100983.28
2018-12-19T19:14:03.507Z,100988.63
2018-12-19T19:16:29.230Z,100988.98
2018-12-19T19:18:55.002Z,100992.64
2018-12-19T19:21:20.731Z,100989.97
2018-12-19T19:23:46.590Z,100988.77
2018-12-19T19:26:12.349Z,100985.61
2018-12-19T19:28:38.190Z,100977.38
2018-12-19T19:31:03.923Z,100982.20
2018-12-19T19:33:29.664Z,100975.67
2018-12-19T19:35:55.394Z,100972.66
2018-12-19T19:38:21.222Z,100973.99
2018-12-19T19:40:47.006Z,100973.64
2018-12-19T19:43:12.771Z,100975.14
2018-12-19T19:45:38.523Z,100974.81
2018-12-19T19:48:04.349Z,100982.47
2018-12-19T19:50:30.091Z,100980.63
2018-12-19T19:52:55.809Z,100981.62
2018-12-19T19:55:21.544Z,100985.49
2018-12-19T19:57:47.260Z,100986.13
2018-12-19T20:00:13.092Z,100983.17
2018-12-19T20:02:38.913Z,100977.13
2018-12-19T20:05:04.956Z,100972.95
2018-12-19T20:07:30.672Z,100974.16
2018-12-19T20:09:56.495Z,100983.83
2018-12-19T20:12:22.342Z,100979.50
2018-12-19T20:14:48.175Z,100978.35
2018-12-19T20:17:16.018Z,100984.52
2018-12-19T20:19:41.745Z,100981.50
2018-12-19T20:22:07.601Z,100978.99
2018-12-19T20:24:33.487Z,100987.20
2018-12-19T20:26:59.314Z,100981.84
2018-12-19T20:29:25.181Z,100976.72
2018-12-19T20:31:51.035Z,100973.53
2018-12-19T20:34:16.788Z,100979.39
2018-12-19T20:36:42.617Z,100973.34
2018-12-19T20:39:08.335Z,100973.88
2018-12-19T20:41:34.069Z,100967.84
2018-12-19T20:43:59.783Z,100977.19
2018-12-19T20:46:25.523Z,100977.59
2018-12-19T20:48:51.271Z,100976.59
2018-12-19T20:51:17.010Z,100975.14
2018-12-19T20:53:42.831Z,100977.01
2018-12-19T20:56:08.688Z,100979.38
2018-12-19T20:58:34.514Z,100976.89
2018-12-19T21:01:00.363Z,100980.73
2018-12-19T21:03:26.081Z,100983.41
2018-12-19T21:05:51.802Z,100983.62
2018-12-19T21:08:17.531Z,100989.31
2018-12-19T21:10:43.263Z,100992.13
2018-12-19T21:13:09.084Z,100994.11
2018-12-19T21:15:34.906Z,101001.77
2018-12-19T21:18:06.907Z,101004.28
2018-12-19T21:20:32.646Z,101000.27
2018-12-19T21:22:58.362Z,100998.75
2018-12-19T21:25:24.087Z,101001.89
2018-12-19T21:27:49.916Z,101005.04
2018-12-19T21:30:15.653Z,101004.69
2018-12-19T21:32:41.366Z,100999.34
2018-12-19T21:35:07.221Z,100989.30
2018-12-19T21:37:33.053Z,100995.66
2018-12-19T21:39:58.883Z,100994.64
2018-12-19T21:42:24.617Z,100995.15
2018-12-19T21:44:50.435Z,100993.63
2018-12-19T21:47:16.385Z,100994.62
2018-12-19T21:49:42.346Z,100991.14
2018-12-19T21:52:08.162Z,100993.30
2018-12-19T21:54:33.986Z,101000.33
2018-12-19T21:56:59.836Z,101000.16
2018-12-19T21:59:25.632Z,100999.33
2018-12-19T22:01:51.422Z,100999.67
2018-12-19T22:04:17.282Z,101001.48
2018-12-19T22:06:43.136Z,100996.66
2018-12-19T22:09:09.099Z,100999.67
2018-12-19T22:11:35.151Z,101010.37
2018-12-19T22:14:00.963Z,101012.02
2018-12-19T22:16:32.982Z,100998.86
2018-12-19T22:18:59.438Z,101007.02
2018-12-19T22:21:25.183Z,101008.36
2018-12-19T22:23:51.005Z,101004.00
2018-12-19T22:26:16.910Z,101009.34
2018-12-19T22:28:42.702Z,101001.33
2018-12-19T22:31:08.462Z,100999.00
2018-12-19T22:33:34.467Z,100997.66
2018-12-19T22:36:00.427Z,100993.63
2018-12-19T22:38:26.221Z,100997.00
2018-12-19T22:40:52.042Z,100997.66
2018-12-19T22:43:17.787Z,100998.01
2018-12-19T22:45:43.595Z,100995.33
2018-12-19T22:48:09.424Z,100993.52
2018-12-19T22:50:35.311Z,100991.65
2018-12-19T22:53:01.430Z,100988.98
2018-12-19T22:55:27.249Z,100991.97
2018-12-19T22:57:53.047Z,100994.27
2018-12-19T23:00:19.111Z,100989.75
2018-12-19T23:02:51.275Z,100992.64
2018-12-19T23:05:19.146Z,100985.09
2018-12-19T23:07:45.042Z,100987.30
2018-12-19T23:10:10.795Z,100981.62
2018-12-19T23:12:36.634Z,100980.27
2018-12-19T23:15:04.358Z,100976.73
2018-12-19T23:17:36.095Z,100978.19
2018-12-19T23:20:04.700Z,100984.84
2018-12-19T23:22:30.946Z,100985.15
2018-12-19T23:24:56.911Z,100979.75
2018-12-19T23:27:22.730Z,100983.23
2018-12-19T23:29:48.464Z,100974.47
2018-12-19T23:32:16.275Z,100977.41
2018-12-19T23:34:42.064Z,100978.45
2018-12-19T23:37:08.005Z,100979.89
2018-12-19T23:39:33.862Z,100983.53
2018-12-19T23:41:59.786Z,100977.83
2018-12-19T23:44:31.082Z,100979.81
2018-12-19T23:46:57.788Z,100978.61
2018-12-19T23:49:23.595Z,100978.02
2018-12-19T23:51:49.320Z,100980.05
2018-12-19T23:54:15.109Z,100980.77
2018-12-19T23:56:40.869Z,100971.75
2018-12-19T23:59:06.630Z,100981.41
